Cangucu, Brazil
Current Conditions -  °F | °C
As of 6:00 AM on Wednesday 22 Oct 2014 (Local Time) from SBPK Reporting Station
Clear Clear  
Wind Chill: 52°   Ceiling: Unl
Heat Index: 52°   Visibility: 6mi
Dew Point: 52°   Wind: 2mph
Humidity: 100%   Direction: 60°ENE
Pressure: 30.12"   Gusts: NA
Location:  31.4°S, 52.68°W
Report Text: SBPK 220800Z 06002KT CAVOK 11/11 Q1020
Loading
Personal Weather Stations






























Interactive Weather Map
Tropical Storm Tracking
New forecast layout! Learn more

10-Day Weather Forecast

Advertisements
Track Severe Weather on mobile